createdAt,value
2023-05-17T00:06:57.132Z,3.10
2023-05-17T00:16:58.673Z,3.13
2023-05-17T00:27:00.243Z,4.28
2023-05-17T00:37:01.784Z,4.10
2023-05-17T00:47:03.344Z,3.90
2023-05-17T00:57:05.963Z,4.45
2023-05-17T01:07:07.530Z,3.72
2023-05-17T01:17:17.101Z,4.90
2023-05-17T01:27:20.816Z,4.97
2023-05-17T01:37:22.305Z,4.40
2023-05-17T01:47:52.597Z,4.47
2023-05-17T01:57:56.118Z,3.90
2023-05-17T02:07:57.899Z,4.60
2023-05-17T02:17:59.592Z,4.37
2023-05-17T02:28:01.029Z,4.27
2023-05-17T02:38:02.594Z,4.78
2023-05-17T02:48:04.333Z,3.75
2023-05-17T02:58:05.822Z,4.40
2023-05-17T03:08:07.311Z,4.90
2023-05-17T03:18:08.885Z,4.82
2023-05-17T03:28:10.560Z,4.50
2023-05-17T03:38:12.062Z,4.63
2023-05-17T03:48:13.635Z,5.18
2023-05-17T03:58:15.542Z,3.50
2023-05-17T04:08:17.012Z,5.03
2023-05-17T04:18:18.510Z,5.43
2023-05-17T04:28:22.002Z,5.45
2023-05-17T04:38:26.337Z,5.00
2023-05-17T04:48:31.044Z,5.17
2023-05-17T04:58:32.746Z,5.30
2023-05-17T05:08:34.613Z,5.37
2023-05-17T05:18:36.472Z,5.20
2023-05-17T05:28:38.243Z,5.10
2023-05-17T05:38:39.657Z,4.03
2023-05-17T05:48:42.133Z,4.57
2023-05-17T05:58:43.603Z,4.22
2023-05-17T06:08:47.146Z,2.63
2023-05-17T06:18:51.108Z,2.30
2023-05-17T06:28:52.903Z,1.80
2023-05-17T06:38:54.313Z,2.10
2023-05-17T06:48:56.242Z,2.03
2023-05-17T06:58:59.546Z,1.50
2023-05-17T07:09:01.028Z,1.98
2023-05-17T07:19:02.892Z,1.47
2023-05-17T07:29:04.547Z,1.07
2023-05-17T07:39:06.208Z,2.03
2023-05-17T07:49:07.894Z,2.00
2023-05-17T07:59:09.449Z,2.17
2023-05-17T08:09:11.132Z,1.60
2023-05-17T08:19:14.998Z,1.90
2023-05-17T08:29:17.145Z,1.33
2023-05-17T08:39:18.780Z,1.20
2023-05-17T08:49:22.723Z,1.65
2023-05-17T08:59:26.685Z,1.60
2023-05-17T09:09:28.680Z,1.63
2023-05-17T09:19:30.452Z,1.35
2023-05-17T09:29:32.569Z,0.93
2023-05-17T09:39:34.134Z,1.33
2023-05-17T09:49:36.455Z,1.00
2023-05-17T09:59:38.726Z,1.17
2023-05-17T10:09:40.972Z,1.60
2023-05-17T10:19:43.688Z,1.27
2023-05-17T10:29:49.933Z,1.20
2023-05-17T10:39:53.240Z,1.23
2023-05-17T10:49:55.874Z,1.93
2023-05-17T11:00:06.301Z,1.30
2023-05-17T11:10:12.102Z,1.30
2023-05-17T11:20:17.371Z,1.70
2023-05-17T11:30:24.628Z,1.80
2023-05-17T11:40:28.104Z,1.42
2023-05-17T11:50:30.066Z,1.83
2023-05-17T12:00:31.986Z,2.00
2023-05-17T12:10:34.912Z,1.60
2023-05-17T12:20:39.010Z,1.77
2023-05-17T12:30:40.714Z,1.40
2023-05-17T12:40:43.527Z,1.80
2023-05-17T12:50:46.274Z,1.48
2023-05-17T13:00:57.740Z,1.23
2023-05-17T13:11:13.553Z,1.70
2023-05-17T13:21:15.130Z,1.60
2023-05-17T13:31:16.609Z,2.20
2023-05-17T13:41:18.263Z,1.53
2023-05-17T13:51:19.751Z,1.27
2023-05-17T14:01:21.237Z,1.27
2023-05-17T14:11:22.852Z,1.80
2023-05-17T14:21:24.383Z,2.15
2023-05-17T14:31:28.352Z,2.05
2023-05-17T14:41:30.042Z,2.00
2023-05-17T14:51:31.659Z,1.93
2023-05-17T15:01:33.413Z,1.50
2023-05-17T15:11:34.890Z,2.80
2023-05-17T15:21:36.532Z,1.83
2023-05-17T15:31:38.288Z,2.47
2023-05-17T15:41:40.539Z,1.97
2023-05-17T15:51:42.090Z,2.00
2023-05-17T16:01:46.240Z,1.90
2023-05-17T16:11:47.740Z,1.80
2023-05-17T16:21:50.897Z,1.80
2023-05-17T16:31:52.899Z,1.90
2023-05-17T16:41:55.070Z,1.05
2023-05-17T16:51:56.661Z,2.13
2023-05-17T17:01:58.495Z,1.50
2023-05-17T17:12:02.753Z,1.40
2023-05-17T17:22:09.865Z,1.87
2023-05-17T17:32:11.594Z,2.00
2023-05-17T17:42:13.187Z,2.03
2023-05-17T17:52:14.765Z,2.00
2023-05-17T18:02:16.263Z,1.47
2023-05-17T18:12:18.258Z,1.43
2023-05-17T18:31:18.295Z,1.50
2023-05-17T18:41:19.826Z,2.10
2023-05-17T18:51:21.777Z,1.87
2023-05-17T19:01:23.608Z,1.07
2023-05-17T19:11:26.487Z,1.48
2023-05-17T19:21:28.120Z,1.70
2023-05-17T19:31:29.565Z,1.43
2023-05-17T19:41:31.182Z,1.70
2023-05-17T19:51:54.082Z,1.10
2023-05-17T20:02:16.141Z,1.83
2023-05-17T20:12:38.827Z,1.77
2023-05-17T20:22:42.449Z,1.75
2023-05-17T20:32:44.045Z,1.90
2023-05-17T20:43:07.716Z,1.63
2023-05-17T20:53:30.376Z,2.10
2023-05-17T21:03:52.367Z,1.55
2023-05-17T21:14:14.258Z,1.83
2023-05-17T21:24:36.134Z,1.37
2023-05-17T21:34:59.519Z,2.30
2023-05-17T21:45:21.479Z,2.10
2023-05-17T22:06:07.981Z,2.60
2023-05-17T22:16:33.007Z,2.17
2023-05-17T22:26:55.096Z,1.47
2023-05-17T22:37:17.531Z,2.10
2023-05-17T22:47:39.485Z,2.33
2023-05-17T22:58:01.278Z,2.10
2023-05-17T23:08:23.404Z,2.30
2023-05-17T23:18:27.393Z,2.63
2023-05-17T23:28:50.293Z,1.90
2023-05-17T23:38:51.791Z,2.27
2023-05-17T23:48:54.291Z,1.90
2023-05-17T23:59:16.012Z,2.10
